Time;durP1;ratioP1;P1;durP2;ratioP2;P2;SDS_P1;SDS_P2;PMS_P1;PMS_P2;Temp;Humidity;BMP_temperature;BMP_pressure;BME280_temperature;BME280_humidity;BME280_pressure;Samples;Min_cycle;Max_cycle;Signal;HPM_P1;HPM_P2
2024/01/26 00:02:11;;;;;;;26.42;14.38;;;;;;;12.10;89.86;102276.44;5058964;28;20029;-75
2024/01/26 00:04:36;;;;;;;20.80;12.55;;;;;;;12.20;89.74;102281.47;5057112;28;20480;-75
2024/01/26 00:07:01;;;;;;;20.90;14.57;;;;;;;12.18;89.14;102278.00;5060732;28;20039;-75
2024/01/26 00:09:27;;;;;;;18.98;12.75;;;;;;;12.31;88.52;102265.34;5057607;28;20042;-75
2024/01/26 00:11:52;;;;;;;20.40;12.77;;;;;;;12.52;88.08;102261.25;5058058;28;20430;-75
2024/01/26 00:14:17;;;;;;;18.08;12.75;;;;;;;12.19;88.68;102255.00;5061537;28;20032;-75
2024/01/26 00:16:43;;;;;;;18.50;13.93;;;;;;;12.15;88.94;102259.50;5055673;28;20021;-75
2024/01/26 00:19:08;;;;;;;21.35;12.32;;;;;;;12.10;89.63;102264.06;5056745;28;20024;-76
2024/01/26 00:21:34;;;;;;;16.13;11.25;;;;;;;12.17;88.84;102257.72;5059935;28;20033;-75
2024/01/26 00:23:59;;;;;;;18.05;12.85;;;;;;;12.22;88.18;102255.81;5059674;28;20028;-75
2024/01/26 00:26:24;;;;;;;17.90;11.20;;;;;;;12.12;89.17;102250.75;5058028;28;20054;-75
2024/01/26 00:28:50;;;;;;;17.13;11.82;;;;;;;12.24;88.41;102253.13;5062045;28;20243;-75
2024/01/26 00:31:17;;;;;;;15.90;11.77;;;;;;;12.18;88.35;102248.84;5062355;28;20593;-75
2024/01/26 00:33:43;;;;;;;19.35;12.30;;;;;;;12.13;88.66;102250.75;5057465;28;20546;-76
2024/01/26 00:36:09;;;;;;;15.07;10.90;;;;;;;12.37;88.37;102248.41;5060829;28;20036;-75
2024/01/26 00:38:34;;;;;;;16.35;11.82;;;;;;;12.16;88.64;102245.34;5058343;28;20067;-75
2024/01/26 00:40:59;;;;;;;17.05;12.18;;;;;;;12.60;86.90;102250.47;5057093;28;20111;-75
2024/01/26 00:43:25;;;;;;;17.13;11.93;;;;;;;12.58;87.13;102239.88;5067574;28;20583;-75
2024/01/26 00:45:50;;;;;;;15.20;10.80;;;;;;;12.22;88.05;102245.22;5064032;28;20032;-75
2024/01/26 00:48:15;;;;;;;15.88;12.23;;;;;;;12.11;88.79;102247.22;5059336;28;20036;-75
2024/01/26 00:50:41;;;;;;;14.60;10.95;;;;;;;12.13;88.74;102250.75;5056029;28;20494;-75
2024/01/26 00:53:06;;;;;;;13.68;10.32;;;;;;;12.12;88.85;102242.81;5058738;28;20396;-75
2024/01/26 00:55:31;;;;;;;13.43;9.90;;;;;;;12.12;88.74;102232.19;5054682;28;20021;-75
2024/01/26 00:57:57;;;;;;;14.23;10.73;;;;;;;12.12;88.70;102234.84;5062222;28;20102;-75
2024/01/26 01:00:24;;;;;;;15.32;10.55;;;;;;;12.09;89.02;102229.63;5062761;28;20499;-75
2024/01/26 01:02:50;;;;;;;13.63;10.40;;;;;;;12.10;89.00;102236.69;5068075;28;20092;-75
2024/01/26 01:05:16;;;;;;;14.82;10.45;;;;;;;12.06;88.92;102235.88;5068480;28;20069;-75
2024/01/26 01:07:41;;;;;;;11.73;9.18;;;;;;;12.06;89.40;102237.66;5062319;28;20503;-75
2024/01/26 01:10:07;;;;;;;15.25;9.02;;;;;;;12.04;89.29;102229.75;5063039;28;20035;-75
2024/01/26 01:12:32;;;;;;;14.27;10.15;;;;;;;12.09;88.41;102227.84;5062922;28;20464;-75
2024/01/26 01:14:58;;;;;;;12.00;9.15;;;;;;;12.15;88.41;102235.66;5062032;28;20117;-75
2024/01/26 01:17:24;;;;;;;13.45;9.07;;;;;;;12.10;88.94;102236.69;5064013;28;20048;-75
2024/01/26 01:19:50;;;;;;;10.45;7.50;;;;;;;12.10;88.58;102234.91;5064470;28;20032;-76
2024/01/26 01:22:15;;;;;;;10.50;8.30;;;;;;;12.14;88.51;102233.06;5068463;28;20035;-75
2024/01/26 01:24:40;;;;;;;10.15;8.32;;;;;;;12.21;87.74;102221.38;5067995;28;20486;-75
2024/01/26 01:27:06;;;;;;;11.32;7.97;;;;;;;12.22;87.73;102215.19;5064650;28;20036;-75
2024/01/26 01:29:31;;;;;;;9.45;7.85;;;;;;;12.19;87.81;102210.81;5067136;28;20024;-75
2024/01/26 01:31:56;;;;;;;10.73;8.18;;;;;;;12.15;87.80;102205.63;5070292;28;20021;-75
2024/01/26 01:34:23;;;;;;;12.23;8.38;;;;;;;12.22;87.20;102205.44;5074921;28;20368;-75
2024/01/26 01:36:48;;;;;;;11.05;7.00;;;;;;;12.18;87.56;102198.47;5076578;28;20056;-75
2024/01/26 01:39:14;;;;;;;8.70;7.05;;;;;;;12.17;87.78;102198.47;5074147;28;20046;-75
2024/01/26 01:41:39;;;;;;;8.80;7.05;;;;;;;12.15;87.38;102205.63;5072671;28;20332;-75
2024/01/26 01:44:04;;;;;;;8.45;7.25;;;;;;;12.14;87.24;102190.63;5068837;28;20458;-75
2024/01/26 01:46:29;;;;;;;9.30;6.65;;;;;;;12.20;87.04;102193.13;5067969;28;20111;-76
2024/01/26 01:48:55;;;;;;;10.25;5.90;;;;;;;12.15;87.31;102193.22;5064276;28;20024;-76
2024/01/26 01:51:21;;;;;;;6.30;5.63;;;;;;;12.07;87.50;102195.19;5065775;28;20446;-76
2024/01/26 01:53:48;;;;;;;7.70;6.25;;;;;;;11.98;87.62;102183.06;5061824;28;20025;-76
2024/01/26 01:56:15;;;;;;;9.73;6.25;;;;;;;12.07;87.57;102187.25;5071220;28;20024;-76
2024/01/26 01:58:41;;;;;;;6.20;5.60;;;;;;;12.10;87.58;102191.63;5073928;28;20040;-76
2024/01/26 02:01:07;;;;;;;6.60;5.30;;;;;;;12.07;86.90;102179.28;5062278;28;20506;-76
2024/01/26 02:03:33;;;;;;;6.70;5.35;;;;;;;12.12;87.15;102176.53;5072551;28;20020;-77
2024/01/26 02:05:58;;;;;;;6.88;5.78;;;;;;;12.12;87.00;102180.03;5069185;28;20038;-77
2024/01/26 02:08:23;;;;;;;8.30;5.30;;;;;;;12.10;87.59;102178.34;5069157;28;20029;-77
2024/01/26 02:10:49;;;;;;;7.88;5.72;;;;;;;12.16;86.68;102179.06;5068605;28;20021;-77
2024/01/26 02:13:14;;;;;;;6.50;4.80;;;;;;;12.06;87.74;102174.91;5070000;28;20028;-77
2024/01/26 02:15:40;;;;;;;6.10;5.50;;;;;;;12.18;86.55;102164.00;5068174;28;20017;-77
2024/01/26 02:18:05;;;;;;;6.60;5.13;;;;;;;12.10;86.99;102170.41;5070401;28;20055;-76
2024/01/26 02:20:31;;;;;;;6.28;4.45;;;;;;;12.06;87.12;102147.53;5062246;28;20112;-77
2024/01/26 02:22:56;;;;;;;6.10;4.07;;;;;;;12.20;86.84;102150.69;5065200;28;20029;-77
2024/01/26 02:25:22;;;;;;;6.88;4.93;;;;;;;12.13;86.57;102160.59;5068193;28;20541;-77
2024/01/26 02:27:47;;;;;;;8.20;4.53;;;;;;;12.27;86.28;102154.06;5066461;28;20427;-77
2024/01/26 02:30:12;;;;;;;4.50;3.75;;;;;;;12.31;85.46;102137.16;5068936;28;20027;-77
2024/01/26 02:32:38;;;;;;;6.03;4.07;;;;;;;12.25;85.98;102141.69;5072990;28;20463;-76
2024/01/26 02:35:03;;;;;;;4.70;3.33;;;;;;;12.32;85.59;102139.78;5073794;28;20041;-76
2024/01/26 02:37:29;;;;;;;4.20;3.78;;;;;;;12.37;85.43;102137.00;5075242;28;20055;-76
2024/01/26 02:39:54;;;;;;;5.53;3.90;;;;;;;12.25;86.02;102133.75;5073888;28;20039;-76
2024/01/26 02:42:20;;;;;;;5.22;4.60;;;;;;;12.21;85.82;102124.13;5075673;28;20500;-77
2024/01/26 02:44:45;;;;;;;7.13;3.72;;;;;;;12.24;85.96;102121.41;5076716;28;20532;-77
2024/01/26 02:47:10;;;;;;;7.68;3.85;;;;;;;12.17;86.34;102117.19;5078087;28;20033;-75
2024/01/26 02:49:36;;;;;;;5.32;4.07;;;;;;;12.25;85.78;102120.50;5073748;28;20016;-75
2024/01/26 02:52:01;;;;;;;4.25;3.83;;;;;;;12.28;86.19;102124.00;5075778;28;21039;-74
2024/01/26 02:54:27;;;;;;;6.13;4.07;;;;;;;12.59;84.00;102116.03;5069835;28;20024;-75
2024/01/26 02:56:52;;;;;;;5.03;3.42;;;;;;;12.68;83.86;102121.09;5067889;28;20028;-76
2024/01/26 02:59:17;;;;;;;5.90;3.53;;;;;;;12.67;83.94;102112.25;5064431;28;20027;-77
2024/01/26 03:01:43;;;;;;;4.43;3.50;;;;;;;12.51;84.48;102108.31;5066700;28;20048;-77
2024/01/26 03:04:08;;;;;;;5.32;3.75;;;;;;;12.65;82.84;102099.97;5066352;28;20024;-77
2024/01/26 03:06:33;;;;;;;6.57;3.35;;;;;;;12.40;84.49;102094.47;5067938;28;20028;-76
2024/01/26 03:08:59;;;;;;;5.88;3.67;;;;;;;12.24;85.48;102091.38;5072448;28;20023;-76
2024/01/26 03:11:35;;;;;;;6.93;3.85;;;;;;;12.18;86.28;102078.28;5065790;28;20472;-76
2024/01/26 03:14:00;;;;;;;5.72;3.55;;;;;;;12.22;85.71;102086.13;5072171;28;20135;-76
2024/01/26 03:16:25;;;;;;;4.78;3.80;;;;;;;12.39;85.49;102093.59;5072157;28;20138;-76
2024/01/26 03:18:51;;;;;;;4.50;3.28;;;;;;;12.29;85.74;102088.59;5067149;28;20021;-76
2024/01/26 03:21:16;;;;;;;3.85;2.95;;;;;;;12.40;85.20;102067.94;5068456;28;20028;-77
2024/01/26 03:23:41;;;;;;;4.20;3.80;;;;;;;12.43;84.91;102059.91;5072597;28;20490;-77
2024/01/26 03:26:07;;;;;;;4.75;3.60;;;;;;;12.27;85.97;102048.00;5071162;28;20029;-77
2024/01/26 03:28:32;;;;;;;5.18;3.50;;;;;;;12.33;85.56;102050.47;5066816;28;20060;-77
2024/01/26 03:30:57;;;;;;;5.32;3.30;;;;;;;12.44;84.84;102051.03;5062983;28;20468;-76
2024/01/26 03:33:22;;;;;;;4.63;3.30;;;;;;;12.56;84.63;102047.19;5068327;28;20031;-76
2024/01/26 03:35:48;;;;;;;6.25;3.25;;;;;;;12.48;85.02;102039.44;5071200;28;20048;-76
2024/01/26 03:38:13;;;;;;;6.80;4.07;;;;;;;12.40;84.92;102042.31;5061628;28;20024;-76
2024/01/26 03:40:39;;;;;;;4.63;3.30;;;;;;;12.50;84.43;102046.44;5068137;28;20037;-76
2024/01/26 03:43:04;;;;;;;4.97;3.88;;;;;;;12.47;84.73;102059.78;5065925;28;20321;-76
2024/01/26 03:45:29;;;;;;;4.63;3.00;;;;;;;12.48;85.31;102045.59;5064705;28;20056;-76
2024/01/26 03:47:54;;;;;;;4.20;2.90;;;;;;;12.60;84.51;102047.03;5065396;28;20020;-76
2024/01/26 03:50:20;;;;;;;4.25;3.35;;;;;;;12.53;84.88;102037.50;5066277;28;20068;-76
2024/01/26 03:52:45;;;;;;;6.82;3.72;;;;;;;12.56;84.40;102032.13;5074850;28;20437;-76
2024/01/26 03:55:11;;;;;;;6.03;4.45;;;;;;;12.52;84.69;102041.94;5068780;28;20032;-76
2024/01/26 03:57:37;;;;;;;5.10;3.80;;;;;;;12.56;84.47;102034.78;5071310;28;20443;-74
2024/01/26 04:00:06;;;;;;;5.32;4.68;;;;;;;12.47;85.29;102029.75;5064919;28;20032;-75
2024/01/26 04:02:31;;;;;;;7.38;5.45;;;;;;;12.46;85.11;102020.91;5071013;28;20060;-74
2024/01/26 04:04:56;;;;;;;6.38;4.22;;;;;;;12.60;84.61;102012.56;5073634;28;20387;-75
2024/01/26 04:07:22;;;;;;;4.93;4.00;;;;;;;12.79;83.89;102017.31;5075037;28;20111;-75
2024/01/26 04:09:47;;;;;;;4.70;4.10;;;;;;;12.64;83.93;102008.91;5067650;28;20089;-75
2024/01/26 04:12:12;;;;;;;5.70;4.03;;;;;;;12.41;85.16;102008.72;5065016;28;20025;-74
2024/01/26 04:14:38;;;;;;;7.03;4.75;;;;;;;12.39;85.67;102022.00;5073296;28;20468;-75
2024/01/26 04:17:03;;;;;;;7.03;5.60;;;;;;;12.40;85.41;102013.16;5072738;28;20028;-75
2024/01/26 04:19:28;;;;;;;7.97;5.50;;;;;;;12.38;85.48;101992.88;5072598;28;20028;-75
2024/01/26 04:21:54;;;;;;;7.25;4.93;;;;;;;12.37;86.14;101981.41;5068095;28;20047;-75
2024/01/26 04:24:19;;;;;;;9.38;6.05;;;;;;;12.38;85.69;101988.44;5076890;28;20378;-74
2024/01/26 04:26:45;;;;;;;8.32;5.40;;;;;;;12.43;85.91;101973.25;5073491;28;20036;-75
2024/01/26 04:29:10;;;;;;;6.50;4.90;;;;;;;12.39;85.65;101981.34;5070555;28;20020;-75
2024/01/26 04:31:42;;;;;;;8.98;5.68;;;;;;;12.44;85.33;101959.06;5072451;28;20024;-75
2024/01/26 04:34:09;;;;;;;10.75;6.93;;;;;;;12.57;84.76;101969.31;5070575;28;20119;-75
2024/01/26 04:36:34;;;;;;;8.38;6.50;;;;;;;12.55;84.66;101953.47;5072318;28;20126;-75
2024/01/26 04:39:01;;;;;;;7.25;6.03;;;;;;;12.58;84.67;101957.78;5078569;28;20570;-74
2024/01/26 04:41:26;;;;;;;7.60;6.05;;;;;;;12.49;84.62;101950.97;5073682;28;20111;-75
2024/01/26 04:43:52;;;;;;;9.32;6.95;;;;;;;12.45;84.57;101944.91;5061514;28;20028;-75
2024/01/26 04:46:17;;;;;;;7.70;5.63;;;;;;;12.51;84.82;101942.06;5074762;28;20031;-75
2024/01/26 04:48:42;;;;;;;8.43;6.28;;;;;;;12.60;84.37;101937.41;5071896;28;20020;-75
2024/01/26 04:51:08;;;;;;;9.18;6.25;;;;;;;12.53;84.29;101944.66;5073067;28;20035;-75
2024/01/26 04:53:33;;;;;;;9.27;6.00;;;;;;;12.74;83.69;101941.34;5069706;28;20036;-75
2024/01/26 04:55:58;;;;;;;9.35;7.38;;;;;;;12.64;83.75;101950.53;5073837;28;20082;-75
2024/01/26 04:58:24;;;;;;;7.45;5.72;;;;;;;12.70;83.64;101950.31;5069959;28;20450;-75
2024/01/26 05:00:49;;;;;;;10.80;6.20;;;;;;;12.79;83.50;101957.13;5060488;28;20492;-75
2024/01/26 05:03:15;;;;;;;8.73;5.75;;;;;;;12.51;84.26;101936.75;5061846;28;20043;-75
2024/01/26 05:05:40;;;;;;;11.07;5.90;;;;;;;12.63;83.54;101943.47;5071270;28;20050;-75
2024/01/26 05:08:06;;;;;;;8.23;5.65;;;;;;;12.60;83.66;101946.22;5071934;28;20111;-75
2024/01/26 05:10:31;;;;;;;8.05;6.97;;;;;;;12.62;83.73;101944.38;5075778;28;20115;-75
2024/01/26 05:12:57;;;;;;;9.85;6.18;;;;;;;12.82;82.78;101940.22;5071599;28;20025;-75
2024/01/26 05:15:22;;;;;;;10.68;7.43;;;;;;;12.47;83.82;101942.22;5078791;28;20043;-75
2024/01/26 05:17:47;;;;;;;8.05;7.25;;;;;;;12.40;84.69;101930.94;5075570;28;20031;-74
2024/01/26 05:20:13;;;;;;;8.95;6.30;;;;;;;12.60;83.51;101935.63;5072814;28;20119;-75
2024/01/26 05:22:38;;;;;;;7.72;5.85;;;;;;;12.65;82.52;101920.41;5069276;28;20028;-75
2024/01/26 05:25:04;;;;;;;9.63;6.60;;;;;;;12.46;84.60;101898.91;5071819;28;20089;-73
2024/01/26 05:27:30;;;;;;;10.13;6.10;;;;;;;12.46;84.31;101908.66;5073315;28;20402;-74
2024/01/26 05:29:56;;;;;;;8.68;5.60;;;;;;;12.49;84.27;101905.88;5071551;28;20033;-75
2024/01/26 05:32:22;;;;;;;8.90;6.18;;;;;;;12.20;86.03;101898.81;5075293;28;20102;-76
2024/01/26 05:34:48;;;;;;;8.55;5.75;;;;;;;12.19;86.10;101895.31;5078428;28;20032;-75
2024/01/26 05:37:13;;;;;;;7.80;5.78;;;;;;;12.23;86.60;101896.97;5068102;28;20028;-75
2024/01/26 05:39:38;;;;;;;11.85;7.80;;;;;;;12.29;86.59;101889.72;5074555;28;20032;-75
2024/01/26 05:42:04;;;;;;;10.57;7.10;;;;;;;12.28;85.91;101895.94;5078226;28;20090;-74
2024/01/26 05:44:29;;;;;;;7.82;5.82;;;;;;;12.36;86.70;101875.38;5070273;28;20032;-75
2024/01/26 05:46:55;;;;;;;8.32;6.13;;;;;;;12.34;86.53;101861.28;5078050;28;20040;-75
2024/01/26 05:49:20;;;;;;;9.88;6.78;;;;;;;12.46;86.02;101868.88;5077467;28;20035;-75
2024/01/26 05:51:46;;;;;;;8.57;6.43;;;;;;;12.36;85.83;101876.25;5073482;28;20031;-74
2024/01/26 05:54:12;;;;;;;10.77;6.35;;;;;;;12.13;87.66;101869.00;5063581;28;20025;-74
2024/01/26 05:56:41;;;;;;;8.45;6.25;;;;;;;12.39;87.46;101881.44;5061084;28;20062;-74
2024/01/26 05:59:07;;;;;;;10.63;6.78;;;;;;;12.09;88.41;101877.94;5062521;28;20054;-74
2024/01/26 06:01:33;;;;;;;10.98;6.70;;;;;;;12.20;87.93;101870.53;5059040;28;20168;-74
2024/01/26 06:03:58;;;;;;;9.60;7.40;;;;;;;12.08;88.67;101862.09;5063114;28;21600;-74
2024/01/26 06:06:23;;;;;;;9.80;6.90;;;;;;;11.98;90.09;101862.38;5068399;28;20373;-74
2024/01/26 06:08:49;;;;;;;7.35;6.07;;;;;;;12.06;89.24;101866.56;5078022;28;20099;-74
2024/01/26 06:11:14;;;;;;;10.90;7.30;;;;;;;12.05;90.52;101849.78;5063511;28;20031;-73
2024/01/26 06:13:40;;;;;;;9.88;7.43;;;;;;;11.97;89.95;101857.09;5063481;28;20472;-74
2024/01/26 06:16:05;;;;;;;11.85;8.45;;;;;;;12.19;88.97;101859.97;5062631;28;20716;-73
2024/01/26 06:18:31;;;;;;;10.80;7.97;;;;;;;12.14;89.24;101856.59;5064743;28;20055;-73
2024/01/26 06:20:56;;;;;;;11.40;7.68;;;;;;;12.12;90.08;101858.41;5062201;28;20519;-74
2024/01/26 06:23:21;;;;;;;12.98;7.20;;;;;;;12.18;89.45;101848.50;5063623;28;20067;-73
2024/01/26 06:25:47;;;;;;;11.48;8.02;;;;;;;12.13;89.90;101838.97;5071359;28;20036;-73
2024/01/26 06:28:12;;;;;;;9.73;8.27;;;;;;;12.06;89.82;101830.31;5074322;28;20039;-73
2024/01/26 06:30:37;;;;;;;9.55;6.97;;;;;;;12.24;89.75;101835.06;5067827;28;20297;-73
2024/01/26 06:33:03;;;;;;;9.20;6.57;;;;;;;12.12;90.47;101831.91;5072116;28;20467;-73
2024/01/26 06:35:28;;;;;;;10.10;7.38;;;;;;;12.25;89.52;101836.78;5074172;28;20036;-74
2024/01/26 06:37:54;;;;;;;13.18;7.88;;;;;;;12.02;90.79;101833.97;5074543;28;20059;-74
2024/01/26 06:40:19;;;;;;;12.50;7.88;;;;;;;11.96;91.98;101856.22;5070077;28;20086;-74
2024/01/26 06:42:44;;;;;;;10.65;8.25;;;;;;;12.20;90.91;101848.44;5069336;28;20052;-73
2024/01/26 06:45:11;;;;;;;11.38;7.63;;;;;;;11.90;91.82;101848.47;5073766;28;20439;-73
2024/01/26 06:47:37;;;;;;;15.88;8.98;;;;;;;11.87;92.73;101853.84;5078906;28;20016;-73
2024/01/26 06:50:04;;;;;;;10.85;8.00;;;;;;;11.86;93.62;101852.13;5075372;28;20051;-73
2024/01/26 06:52:33;;;;;;;11.02;6.88;;;;;;;11.91;93.96;101842.25;5073313;28;20020;-73
2024/01/26 06:54:59;;;;;;;11.18;8.88;;;;;;;11.86;94.39;101833.56;5064969;28;20636;-73
2024/01/26 06:57:24;;;;;;;11.85;7.55;;;;;;;11.95;94.97;101828.00;5072372;28;20028;-73
2024/01/26 06:59:50;;;;;;;8.85;7.22;;;;;;;11.97;94.34;101831.47;5067998;28;20025;-73
2024/01/26 07:02:15;;;;;;;8.95;7.05;;;;;;;12.04;93.81;101834.81;5072482;28;20035;-73
2024/01/26 07:04:40;;;;;;;13.52;7.72;;;;;;;12.02;93.92;101839.28;5069346;28;20727;-73
2024/01/26 07:07:06;;;;;;;10.50;7.35;;;;;;;11.92;94.13;101837.81;5068696;28;20376;-73
2024/01/26 07:09:31;;;;;;;10.15;7.80;;;;;;;11.95;94.78;101821.84;5068746;28;20654;-73
2024/01/26 07:11:59;;;;;;;10.57;7.20;;;;;;;11.89;95.75;101825.53;5066521;28;20048;-73
2024/01/26 07:14:24;;;;;;;9.65;6.95;;;;;;;11.96;94.83;101827.06;5068057;28;20029;-73
2024/01/26 07:16:50;;;;;;;9.77;7.32;;;;;;;11.88;95.78;101814.97;5070798;28;20029;-73
2024/01/26 07:19:15;;;;;;;8.38;6.72;;;;;;;11.89;95.32;101829.94;5059874;28;20884;-73
2024/01/26 07:21:41;;;;;;;10.82;7.05;;;;;;;12.08;94.20;101807.31;5062457;28;20383;-73
2024/01/26 07:24:07;;;;;;;7.43;5.72;;;;;;;12.06;93.83;101806.47;5061383;28;20467;-73
2024/01/26 07:26:32;;;;;;;8.98;6.05;;;;;;;12.19;93.52;101810.47;5068327;28;20111;-73
2024/01/26 07:28:58;;;;;;;7.03;5.70;;;;;;;12.32;92.67;101799.50;5068435;28;20030;-73
2024/01/26 07:31:23;;;;;;;8.38;5.72;;;;;;;12.32;92.19;101810.97;5060641;28;20114;-73
2024/01/26 07:33:49;;;;;;;9.02;6.10;;;;;;;12.41;91.62;101809.81;5064365;28;20107;-73
2024/01/26 07:36:14;;;;;;;11.95;6.40;;;;;;;12.40;92.50;101795.69;5073140;28;20130;-73
2024/01/26 07:38:40;;;;;;;6.78;5.97;;;;;;;12.43;91.67;101792.03;5072550;28;20459;-73
2024/01/26 07:41:05;;;;;;;8.07;5.50;;;;;;;12.55;91.55;101785.47;5070290;28;20101;-73
2024/01/26 07:43:30;;;;;;;6.53;5.82;;;;;;;12.69;90.55;101793.84;5076074;28;20031;-73
2024/01/26 07:45:56;;;;;;;9.25;6.35;;;;;;;12.71;90.31;101797.28;5065925;28;20035;-73
2024/01/26 07:48:21;;;;;;;10.18;7.45;;;;;;;12.83;89.64;101802.19;5069456;28;20125;-73
2024/01/26 07:50:46;;;;;;;8.52;6.32;;;;;;;12.88;89.01;101810.00;5066465;28;20025;-73
2024/01/26 07:53:12;;;;;;;7.00;5.85;;;;;;;12.95;88.91;101823.00;5076295;28;20589;-73
2024/01/26 07:55:38;;;;;;;8.25;6.22;;;;;;;12.95;88.32;101828.31;5068380;28;20084;-73
2024/01/26 07:58:03;;;;;;;7.57;5.95;;;;;;;12.89;89.23;101839.13;5069107;28;20028;-73
2024/01/26 08:00:29;;;;;;;10.50;7.88;;;;;;;13.01;88.23;101848.50;5072689;28;20040;-73
2024/01/26 08:02:54;;;;;;;7.75;6.80;;;;;;;12.69;91.08;101842.47;5064447;28;20099;-73
2024/01/26 08:05:19;;;;;;;8.52;6.38;;;;;;;13.04;89.69;101848.38;5066892;28;20031;-73
2024/01/26 08:07:46;;;;;;;8.38;7.10;;;;;;;13.05;89.26;101860.72;5062195;28;20675;-73
2024/01/26 08:10:11;;;;;;;8.13;6.28;;;;;;;13.03;89.62;101858.13;5059642;28;20464;-73
2024/01/26 08:12:37;;;;;;;9.35;6.30;;;;;;;12.94;89.71;101858.44;5063643;28;20030;-73
2024/01/26 08:15:03;;;;;;;7.82;5.95;;;;;;;12.97;89.79;101855.69;5063706;28;20644;-73
2024/01/26 08:17:29;;;;;;;10.10;6.68;;;;;;;12.93;89.66;101850.53;5062031;28;20039;-77
2024/01/26 08:19:54;;;;;;;8.10;6.45;;;;;;;13.00;89.82;101858.22;5075135;28;20368;-75
2024/01/26 08:22:20;;;;;;;8.50;5.70;;;;;;;13.00;89.74;101858.22;5068709;28;20070;-75
2024/01/26 08:24:45;;;;;;;9.57;6.55;;;;;;;12.94;90.79;101850.47;5068074;28;20043;-75
2024/01/26 08:27:10;;;;;;;8.27;5.32;;;;;;;13.05;89.97;101854.53;5067065;28;20042;-74
2024/01/26 08:29:36;;;;;;;9.35;6.50;;;;;;;13.03;90.00;101854.59;5070217;28;20034;-74
2024/01/26 08:32:01;;;;;;;9.02;6.05;;;;;;;12.93;90.82;101853.19;5076464;28;20387;-74
2024/01/26 08:34:27;;;;;;;7.32;6.07;;;;;;;12.86;90.79;101851.63;5079924;28;20437;-72
2024/01/26 08:36:52;;;;;;;8.18;5.10;;;;;;;13.06;90.26;101862.47;5068184;28;20055;-76
2024/01/26 08:39:18;;;;;;;8.05;5.30;;;;;;;13.05;90.33;101854.53;5064527;28;20111;-77
2024/01/26 08:41:43;;;;;;;6.05;5.35;;;;;;;12.97;90.90;101884.88;5073565;28;20105;-77
2024/01/26 08:44:12;;;;;;;8.25;5.40;;;;;;;13.23;89.84;101862.75;5079022;28;20056;-77
2024/01/26 08:46:38;;;;;;;7.28;5.30;;;;;;;13.24;89.58;101869.84;5067177;28;20439;-74
2024/01/26 08:49:06;;;;;;;7.55;5.05;;;;;;;13.34;88.65;101854.44;5078858;28;20016;-73
2024/01/26 08:51:32;;;;;;;6.50;5.07;;;;;;;13.38;89.38;101863.16;5077664;28;20034;-73
2024/01/26 08:53:57;;;;;;;5.68;4.63;;;;;;;13.43;89.07;101867.41;5071626;28;20024;-73
2024/01/26 08:56:23;;;;;;;5.55;4.70;;;;;;;13.36;89.09;101865.00;5072587;28;20403;-74
2024/01/26 08:58:49;;;;;;;9.48;4.93;;;;;;;13.42;89.17;101862.13;5072768;28;20463;-73
2024/01/26 09:01:14;;;;;;;6.43;5.40;;;;;;;13.39;89.31;101865.78;5069216;28;20071;-74
2024/01/26 09:03:40;;;;;;;5.97;5.38;;;;;;;13.45;88.31;101870.84;5068751;28;20024;-74
2024/01/26 09:06:05;;;;;;;6.32;5.72;;;;;;;13.52;87.98;101882.13;5072169;28;20479;-74
2024/01/26 09:08:30;;;;;;;10.23;6.22;;;;;;;13.30;89.58;101871.41;5078651;28;20036;-73
2024/01/26 09:10:56;;;;;;;8.27;6.32;;;;;;;13.30;90.27;101881.16;5071143;28;20072;-74
2024/01/26 09:13:21;;;;;;;7.32;6.60;;;;;;;13.28;90.41;101882.06;5074752;28;20407;-73
2024/01/26 09:15:46;;;;;;;8.75;6.80;;;;;;;13.26;90.41;101897.19;5075055;28;20060;-74
2024/01/26 09:18:12;;;;;;;8.93;6.65;;;;;;;13.28;89.97;101910.41;5073762;28;20535;-73
2024/01/26 09:20:37;;;;;;;12.30;7.22;;;;;;;13.40;89.90;101925.94;5070449;28;20040;-73
2024/01/26 09:23:03;;;;;;;8.35;6.05;;;;;;;13.45;89.10;101939.91;5076427;28;20036;-73
2024/01/26 09:25:28;;;;;;;7.57;4.60;;;;;;;13.19;89.43;101946.06;5076975;28;20043;-72
2024/01/26 09:27:54;;;;;;;5.55;3.42;;;;;;;13.20;88.54;101949.63;5085701;28;20112;-72
2024/01/26 09:30:19;;;;;;;4.50;2.88;;;;;;;13.19;87.96;101959.34;5073314;28;20029;-73
2024/01/26 09:32:44;;;;;;;6.43;3.00;;;;;;;13.07;88.65;101961.56;5078715;28;20028;-73
2024/01/26 09:35:10;;;;;;;3.95;2.35;;;;;;;13.13;87.44;101962.22;5077119;28;20538;-72
2024/01/26 09:37:36;;;;;;;4.85;3.00;;;;;;;13.18;87.05;101954.97;5070218;28;20107;-73
2024/01/26 09:40:02;;;;;;;5.03;2.58;;;;;;;13.07;87.00;101958.91;5078485;28;20032;-73
2024/01/26 09:42:27;;;;;;;4.35;3.00;;;;;;;13.12;87.33;101963.16;5081409;28;20479;-72
2024/01/26 09:44:53;;;;;;;3.65;2.20;;;;;;;13.19;86.86;101967.31;5081602;28;20036;-72
2024/01/26 09:47:20;;;;;;;3.63;2.30;;;;;;;13.08;86.41;101977.44;5078810;28;20016;-75
2024/01/26 09:49:54;;;;;;;5.55;2.30;;;;;;;12.95;87.20;101999.97;5079335;28;20052;-75
2024/01/26 09:52:21;;;;;;;8.30;2.00;;;;;;;12.98;84.74;102027.31;5080961;28;20043;-75
2024/01/26 09:54:47;;;;;;;2.40;0.93;;;;;;;12.86;82.42;102048.03;5081462;28;20032;-75
2024/01/26 09:57:13;;;;;;;8.00;1.38;;;;;;;12.60;82.05;102070.91;5077945;28;20016;-75
2024/01/26 09:59:39;;;;;;;5.20;1.23;;;;;;;12.43;80.34;102079.34;5077557;28;20463;-75
2024/01/26 10:02:04;;;;;;;7.43;0.80;;;;;;;12.42;79.61;102087.34;5079760;28;20048;-74
2024/01/26 10:04:29;;;;;;;4.25;1.00;;;;;;;12.47;79.54;102098.69;5079324;28;20496;-75
2024/01/26 10:06:55;;;;;;;8.35;1.17;;;;;;;12.42;77.75;102097.97;5075901;28;20061;-76
2024/01/26 10:09:24;;;;;;;4.35;1.20;;;;;;;12.51;78.18;102118.94;5077354;28;20059;-76
2024/01/26 10:11:49;;;;;;;6.50;1.30;;;;;;;12.57;75.89;102116.09;5076563;28;20039;-75
2024/01/26 10:14:21;;;;;;;7.07;1.63;;;;;;;12.56;77.15;102117.00;5079172;28;20024;-76
2024/01/26 10:16:57;;;;;;;3.22;0.90;;;;;;;12.56;77.82;102122.31;5076607;28;20024;-75
2024/01/26 10:19:26;;;;;;;4.78;0.95;;;;;;;12.52;77.62;102124.19;5076851;28;20486;-75
2024/01/26 10:21:53;;;;;;;3.58;1.10;;;;;;;12.51;76.54;102119.78;5071946;28;20024;-75
2024/01/26 10:24:22;;;;;;;4.32;1.20;;;;;;;12.46;77.43;102142.94;5083945;28;20107;-75
2024/01/26 10:26:47;;;;;;;5.13;1.00;;;;;;;12.43;77.22;102150.97;5080045;28;20750;-76
2024/01/26 10:29:13;;;;;;;5.30;1.30;;;;;;;12.55;77.14;102152.41;5078238;28;20499;-75
2024/01/26 10:31:41;;;;;;;6.18;1.70;;;;;;;12.59;76.53;102170.00;5071232;28;20024;-76
2024/01/26 10:34:12;;;;;;;7.40;1.65;;;;;;;12.63;76.63;102171.63;5071239;28;20021;-75
2024/01/26 10:36:43;;;;;;;8.63;2.08;;;;;;;12.54;76.34;102174.53;5077536;28;20027;-75
2024/01/26 10:39:22;;;;;;;13.00;1.83;;;;;;;12.55;76.21;102171.00;5080248;28;20359;-76
2024/01/26 10:41:57;;;;;;;7.30;1.30;;;;;;;12.60;75.19;102182.34;5074768;28;20506;-75
2024/01/26 10:44:23;;;;;;;5.95;1.50;;;;;;;12.48;74.53;102188.84;5065297;28;20028;-75
2024/01/26 10:46:50;;;;;;;6.40;1.42;;;;;;;12.64;73.71;102196.41;5075691;28;20454;-76
2024/01/26 10:49:16;;;;;;;4.60;1.25;;;;;;;12.88;72.54;102197.50;5077969;28;20036;-76
2024/01/26 10:51:43;;;;;;;12.07;1.98;;;;;;;12.95;71.59;102215.00;5074281;28;20096;-76
2024/01/26 10:54:10;;;;;;;10.25;1.95;;;;;;;13.10;71.66;102221.66;5075016;28;20108;-76
2024/01/26 10:56:36;;;;;;;10.52;1.58;;;;;;;13.27;71.78;102225.59;5072374;28;20020;-73
2024/01/26 10:59:02;;;;;;;8.77;1.83;;;;;;;13.23;70.95;102225.72;5061947;28;20524;-74
2024/01/26 11:01:29;;;;;;;9.20;1.90;;;;;;;14.86;67.57;102232.88;5068594;28;20039;-73
2024/01/26 11:03:58;;;;;;;12.35;2.08;;;;;;;16.63;61.67;102227.66;5065253;28;20361;-73
2024/01/26 11:06:26;;;;;;;12.68;1.48;;;;;;;17.35;59.47;102240.53;5067483;28;20159;-76
2024/01/26 11:08:56;;;;;;;7.75;1.55;;;;;;;17.10;57.72;102259.47;5071193;28;20025;-76
2024/01/26 11:11:21;;;;;;;6.80;1.63;;;;;;;15.84;57.23;102269.19;5075672;28;20830;-76
2024/01/26 11:13:52;;;;;;;8.02;1.20;;;;;;;15.20;58.45;102274.25;5067414;28;20112;-76
2024/01/26 11:16:18;;;;;;;7.82;1.70;;;;;;;14.60;60.28;102289.69;5070862;28;20066;-76